<?xml version="1.0" encoding="UTF-8" standalone="no" ?>
<gpx xmlns="http://www.topografix.com/GPX/1/1" xmlns:xsi="http://www.w3.org/2001/XMLSchema-instance" xsi:schemaLocation="http://www.topografix.com/GPX/1/1 http://www.topografix.com/GPX/1/1/gpx.xsd" version="1.1" creator="VisuGPX - https://www.visugpx.com">
  <metadata>
    <name>Belair depuis les Fauges</name>
    <desc><![CDATA[<p>Heure de départ: 09:43 26 mars 2025<br/>Heure d'arrivée: 15:32 26 mars 2025<br/>Distance: 17,9 km (05:49)<br/>Temps déplacement: 02:26<br/>Vitesse moyenne: 3,08 km/h<br/>Vitesse moyenne mouv.: 7,32 km/h<br/>Vitesse Max.: 72,31 km/h<br/>Altitude minimale: 922 m<br/>Altitude maximale: 1788 m<br/>Vitesse de montée: 261,3 m/h<br/>Vitesse de descente: -307,2 m/h<br/>Gain d'altitude: 731 m<br/>Perte d'altitude: -917 m<br/>Temps de montée: 02:48<br/>Temps de descente: 02:59<br/></p><hr align="center" width="480" style="height: 2px; width: 517px"/>]]></desc>
  </metadata>
  <trk>
    <name><![CDATA[2025-03-26 09:43]]></name>
    <desc><![CDATA[<p>Heure de départ: 09:43 26 mars 2025<br/>Heure d'arrivée: 15:32 26 mars 2025<br/>Distance: 17,9 km (05:49)<br/>Temps déplacement: 02:26<br/>Vitesse moyenne: 3,08 km/h<br/>Vitesse moyenne mouv.: 7,32 km/h<br/>Vitesse Max.: 72,31 km/h<br/>Altitude minimale: 922 m<br/>Altitude maximale: 1788 m<br/>Vitesse de montée: 261,3 m/h<br/>Vitesse de descente: -307,2 m/h<br/>Gain d'altitude: 731 m<br/>Perte d'altitude: -917 m<br/>Temps de montée: 02:48<br/>Temps de descente: 02:59<br/></p><hr align="center" width="480" style="height: 2px; width: 517px"/>]]></desc>
    <extensions>
      <line xmlns="http://www.topografix.com/GPX/gpx_style/0/2">
        <color>0000FF</color>
        <width>4</width>
      </line>
    </extensions>
    <trkseg>
      <trkpt lat="46.26936" lon="6.73545">
        <ele>1224.38</ele>
        <time>2025-03-26T08:55:06Z</time>
      </trkpt>
      <trkpt lat="46.26937" lon="6.73519">
        <ele>1222.66</ele>
        <time>2025-03-26T08:55:24Z</time>
      </trkpt>
      <trkpt lat="46.26936" lon="6.73492">
        <ele>1224.38</ele>
        <time>2025-03-26T08:55:45Z</time>
      </trkpt>
      <trkpt lat="46.26952" lon="6.73479">
        <ele>1225.56</ele>
        <time>2025-03-26T08:56:11Z</time>
      </trkpt>
      <trkpt lat="46.2697" lon="6.73475">
        <ele>1228.35</ele>
        <time>2025-03-26T08:56:33Z</time>
      </trkpt>
      <trkpt lat="46.2696" lon="6.73497">
        <ele>1232.14</ele>
        <time>2025-03-26T08:57:51Z</time>
      </trkpt>
      <trkpt lat="46.26957" lon="6.73524">
        <ele>1237.38</ele>
        <time>2025-03-26T08:58:12Z</time>
      </trkpt>
      <trkpt lat="46.26965" lon="6.73547">
        <ele>1236.47</ele>
        <time>2025-03-26T08:58:30Z</time>
      </trkpt>
      <trkpt lat="46.26983" lon="6.73552">
        <ele>1242.71</ele>
        <time>2025-03-26T08:59:19Z</time>
      </trkpt>
      <trkpt lat="46.26995" lon="6.73532">
        <ele>1245.17</ele>
        <time>2025-03-26T08:59:52Z</time>
      </trkpt>
      <trkpt lat="46.27013" lon="6.73526">
        <ele>1248.44</ele>
        <time>2025-03-26T09:00:26Z</time>
      </trkpt>
      <trkpt lat="46.27031" lon="6.73529">
        <ele>1249.15</ele>
        <time>2025-03-26T09:01:15Z</time>
      </trkpt>
      <trkpt lat="46.27049" lon="6.73533">
        <ele>1257.47</ele>
        <time>2025-03-26T09:02:06Z</time>
      </trkpt>
      <trkpt lat="46.27067" lon="6.73527">
        <ele>1263.38</ele>
        <time>2025-03-26T09:02:53Z</time>
      </trkpt>
      <trkpt lat="46.27079" lon="6.73507">
        <ele>1266.77</ele>
        <time>2025-03-26T09:03:37Z</time>
      </trkpt>
      <trkpt lat="46.27093" lon="6.73489">
        <ele>1273.17</ele>
        <time>2025-03-26T09:04:19Z</time>
      </trkpt>
      <trkpt lat="46.27109" lon="6.73475">
        <ele>1272.47</ele>
        <time>2025-03-26T09:04:53Z</time>
      </trkpt>
      <trkpt lat="46.27127" lon="6.73468">
        <ele>1273.47</ele>
        <time>2025-03-26T09:06:14Z</time>
      </trkpt>
      <trkpt lat="46.27142" lon="6.73482">
        <ele>1282.26</ele>
        <time>2025-03-26T09:08:34Z</time>
      </trkpt>
      <trkpt lat="46.27161" lon="6.73474">
        <ele>1290.17</ele>
        <time>2025-03-26T09:09:34Z</time>
      </trkpt>
      <trkpt lat="46.27176" lon="6.73459">
        <ele>1293.15</ele>
        <time>2025-03-26T09:10:06Z</time>
      </trkpt>
      <trkpt lat="46.27193" lon="6.73452">
        <ele>1302.46</ele>
        <time>2025-03-26T09:10:36Z</time>
      </trkpt>
      <trkpt lat="46.27211" lon="6.73445">
        <ele>1309.4</ele>
        <time>2025-03-26T09:11:14Z</time>
      </trkpt>
      <trkpt lat="46.27229" lon="6.73438">
        <ele>1311.48</ele>
        <time>2025-03-26T09:11:52Z</time>
      </trkpt>
      <trkpt lat="46.27247" lon="6.7344">
        <ele>1316.45</ele>
        <time>2025-03-26T09:13:20Z</time>
      </trkpt>
      <trkpt lat="46.27265" lon="6.73432">
        <ele>1322.45</ele>
        <time>2025-03-26T09:13:48Z</time>
      </trkpt>
      <trkpt lat="46.27281" lon="6.73445">
        <ele>1325.5</ele>
        <time>2025-03-26T09:14:41Z</time>
      </trkpt>
      <trkpt lat="46.27281" lon="6.73471">
        <ele>1326.56</ele>
        <time>2025-03-26T09:15:04Z</time>
      </trkpt>
      <trkpt lat="46.2729" lon="6.73494">
        <ele>1327.76</ele>
        <time>2025-03-26T09:15:25Z</time>
      </trkpt>
      <trkpt lat="46.27308" lon="6.73502">
        <ele>1332.47</ele>
        <time>2025-03-26T09:16:40Z</time>
      </trkpt>
      <trkpt lat="46.27322" lon="6.7352">
        <ele>1336.71</ele>
        <time>2025-03-26T09:17:24Z</time>
      </trkpt>
      <trkpt lat="46.27334" lon="6.73539">
        <ele>1339.44</ele>
        <time>2025-03-26T09:18:02Z</time>
      </trkpt>
      <trkpt lat="46.27344" lon="6.73561">
        <ele>1342.77</ele>
        <time>2025-03-26T09:18:38Z</time>
      </trkpt>
      <trkpt lat="46.27354" lon="6.73585">
        <ele>1346.47</ele>
        <time>2025-03-26T09:19:17Z</time>
      </trkpt>
      <trkpt lat="46.27361" lon="6.73609">
        <ele>1350.77</ele>
        <time>2025-03-26T09:20:01Z</time>
      </trkpt>
      <trkpt lat="46.27368" lon="6.73634">
        <ele>1354.47</ele>
        <time>2025-03-26T09:20:39Z</time>
      </trkpt>
      <trkpt lat="46.27374" lon="6.7366">
        <ele>1358.45</ele>
        <time>2025-03-26T09:21:14Z</time>
      </trkpt>
      <trkpt lat="46.27381" lon="6.73684">
        <ele>1362.26</ele>
        <time>2025-03-26T09:21:55Z</time>
      </trkpt>
      <trkpt lat="46.27389" lon="6.73708">
        <ele>1367.15</ele>
        <time>2025-03-26T09:22:43Z</time>
      </trkpt>
      <trkpt lat="46.27395" lon="6.73733">
        <ele>1373.47</ele>
        <time>2025-03-26T09:23:20Z</time>
      </trkpt>
      <trkpt lat="46.27396" lon="6.7376">
        <ele>1369.48</ele>
        <time>2025-03-26T09:23:53Z</time>
      </trkpt>
      <trkpt lat="46.27405" lon="6.73784">
        <ele>1371.47</ele>
        <time>2025-03-26T09:24:28Z</time>
      </trkpt>
      <trkpt lat="46.27411" lon="6.73809">
        <ele>1376.47</ele>
        <time>2025-03-26T09:25:28Z</time>
      </trkpt>
      <trkpt lat="46.27422" lon="6.73829">
        <ele>1383.68</ele>
        <time>2025-03-26T09:26:02Z</time>
      </trkpt>
      <trkpt lat="46.2744" lon="6.7384">
        <ele>1389.17</ele>
        <time>2025-03-26T09:26:43Z</time>
      </trkpt>
      <trkpt lat="46.27458" lon="6.73843">
        <ele>1396.17</ele>
        <time>2025-03-26T09:27:28Z</time>
      </trkpt>
      <trkpt lat="46.27466" lon="6.73866">
        <ele>1396.49</ele>
        <time>2025-03-26T09:28:34Z</time>
      </trkpt>
      <trkpt lat="46.27463" lon="6.73891">
        <ele>1397.66</ele>
        <time>2025-03-26T09:29:03Z</time>
      </trkpt>
      <trkpt lat="46.27463" lon="6.73918">
        <ele>1403.17</ele>
        <time>2025-03-26T09:29:36Z</time>
      </trkpt>
      <trkpt lat="46.27445" lon="6.73914">
        <ele>1409.38</ele>
        <time>2025-03-26T09:31:55Z</time>
      </trkpt>
      <trkpt lat="46.2743" lon="6.73896">
        <ele>1418.17</ele>
        <time>2025-03-26T09:32:45Z</time>
      </trkpt>
      <trkpt lat="46.27414" lon="6.73884">
        <ele>1421.11</ele>
        <time>2025-03-26T09:33:34Z</time>
      </trkpt>
      <trkpt lat="46.27396" lon="6.73883">
        <ele>1419.45</ele>
        <time>2025-03-26T09:34:03Z</time>
      </trkpt>
      <trkpt lat="46.27377" lon="6.7388">
        <ele>1428.87</ele>
        <time>2025-03-26T09:35:04Z</time>
      </trkpt>
      <trkpt lat="46.2736" lon="6.73887">
        <ele>1430.16</ele>
        <time>2025-03-26T09:35:47Z</time>
      </trkpt>
      <trkpt lat="46.27344" lon="6.73901">
        <ele>1438.44</ele>
        <time>2025-03-26T09:36:39Z</time>
      </trkpt>
      <trkpt lat="46.27334" lon="6.73923">
        <ele>1454.48</ele>
        <time>2025-03-26T09:38:12Z</time>
      </trkpt>
      <trkpt lat="46.27344" lon="6.73945">
        <ele>1448.83</ele>
        <time>2025-03-26T09:38:39Z</time>
      </trkpt>
      <trkpt lat="46.27362" lon="6.73949">
        <ele>1452.46</ele>
        <time>2025-03-26T09:39:14Z</time>
      </trkpt>
      <trkpt lat="46.2735" lon="6.7397">
        <ele>1468.55</ele>
        <time>2025-03-26T09:41:36Z</time>
      </trkpt>
      <trkpt lat="46.27333" lon="6.73976">
        <ele>1471.47</ele>
        <time>2025-03-26T09:42:26Z</time>
      </trkpt>
      <trkpt lat="46.27338" lon="6.74002">
        <ele>1473.77</ele>
        <time>2025-03-26T09:43:01Z</time>
      </trkpt>
      <trkpt lat="46.27335" lon="6.74028">
        <ele>1467.47</ele>
        <time>2025-03-26T09:44:09Z</time>
      </trkpt>
      <trkpt lat="46.27328" lon="6.74053">
        <ele>1480.47</ele>
        <time>2025-03-26T09:46:20Z</time>
      </trkpt>
      <trkpt lat="46.27313" lon="6.74066">
        <ele>1485.47</ele>
        <time>2025-03-26T09:47:15Z</time>
      </trkpt>
      <trkpt lat="46.273" lon="6.74085">
        <ele>1486.74</ele>
        <time>2025-03-26T09:48:06Z</time>
      </trkpt>
      <trkpt lat="46.27311" lon="6.74106">
        <ele>1492.17</ele>
        <time>2025-03-26T09:48:32Z</time>
      </trkpt>
      <trkpt lat="46.27312" lon="6.74132">
        <ele>1495.56</ele>
        <time>2025-03-26T09:49:35Z</time>
      </trkpt>
      <trkpt lat="46.27311" lon="6.74158">
        <ele>1498.47</ele>
        <time>2025-03-26T09:50:17Z</time>
      </trkpt>
      <trkpt lat="46.27315" lon="6.74184">
        <ele>1501.47</ele>
        <time>2025-03-26T09:51:18Z</time>
      </trkpt>
      <trkpt lat="46.27315" lon="6.7421">
        <ele>1505.46</ele>
        <time>2025-03-26T09:56:48Z</time>
      </trkpt>
      <trkpt lat="46.27309" lon="6.74236">
        <ele>1513.15</ele>
        <time>2025-03-26T09:57:31Z</time>
      </trkpt>
      <trkpt lat="46.27311" lon="6.74263">
        <ele>1518.17</ele>
        <time>2025-03-26T09:58:17Z</time>
      </trkpt>
      <trkpt lat="46.27308" lon="6.74289">
        <ele>1523.16</ele>
        <time>2025-03-26T09:59:05Z</time>
      </trkpt>
      <trkpt lat="46.27303" lon="6.74315">
        <ele>1525.26</ele>
        <time>2025-03-26T09:59:38Z</time>
      </trkpt>
      <trkpt lat="46.27299" lon="6.74341">
        <ele>1534.08</ele>
        <time>2025-03-26T10:01:03Z</time>
      </trkpt>
      <trkpt lat="46.27294" lon="6.74366">
        <ele>1538.45</ele>
        <time>2025-03-26T10:01:57Z</time>
      </trkpt>
      <trkpt lat="46.27285" lon="6.74389">
        <ele>1540.76</ele>
        <time>2025-03-26T10:02:45Z</time>
      </trkpt>
      <trkpt lat="46.2727" lon="6.74405">
        <ele>1538.47</ele>
        <time>2025-03-26T10:03:28Z</time>
      </trkpt>
      <trkpt lat="46.2726" lon="6.74426">
        <ele>1535.47</ele>
        <time>2025-03-26T10:04:21Z</time>
      </trkpt>
      <trkpt lat="46.27254" lon="6.74451">
        <ele>1537.47</ele>
        <time>2025-03-26T10:05:16Z</time>
      </trkpt>
      <trkpt lat="46.27257" lon="6.74477">
        <ele>1546.17</ele>
        <time>2025-03-26T10:06:03Z</time>
      </trkpt>
      <trkpt lat="46.2726" lon="6.74502">
        <ele>1555.47</ele>
        <time>2025-03-26T10:06:49Z</time>
      </trkpt>
      <trkpt lat="46.27261" lon="6.74529">
        <ele>1560.15</ele>
        <time>2025-03-26T10:07:29Z</time>
      </trkpt>
      <trkpt lat="46.2726" lon="6.74555">
        <ele>1567.17</ele>
        <time>2025-03-26T10:08:21Z</time>
      </trkpt>
      <trkpt lat="46.2726" lon="6.74581">
        <ele>1570.14</ele>
        <time>2025-03-26T10:09:03Z</time>
      </trkpt>
      <trkpt lat="46.27258" lon="6.74608">
        <ele>1574.47</ele>
        <time>2025-03-26T10:09:45Z</time>
      </trkpt>
      <trkpt lat="46.27254" lon="6.74634">
        <ele>1572.47</ele>
        <time>2025-03-26T10:10:23Z</time>
      </trkpt>
      <trkpt lat="46.27246" lon="6.74658">
        <ele>1581.38</ele>
        <time>2025-03-26T10:11:15Z</time>
      </trkpt>
      <trkpt lat="46.27236" lon="6.7468">
        <ele>1589.18</ele>
        <time>2025-03-26T10:12:11Z</time>
      </trkpt>
      <trkpt lat="46.27222" lon="6.74697">
        <ele>1593.5</ele>
        <time>2025-03-26T10:12:57Z</time>
      </trkpt>
      <trkpt lat="46.27209" lon="6.74715">
        <ele>1595.23</ele>
        <time>2025-03-26T10:13:40Z</time>
      </trkpt>
      <trkpt lat="46.27191" lon="6.74723">
        <ele>1595.15</ele>
        <time>2025-03-26T10:14:15Z</time>
      </trkpt>
      <trkpt lat="46.2718" lon="6.74743">
        <ele>1602.44</ele>
        <time>2025-03-26T10:15:03Z</time>
      </trkpt>
      <trkpt lat="46.27168" lon="6.74763">
        <ele>1601.47</ele>
        <time>2025-03-26T10:15:44Z</time>
      </trkpt>
      <trkpt lat="46.27161" lon="6.74787">
        <ele>1602.47</ele>
        <time>2025-03-26T10:16:24Z</time>
      </trkpt>
      <trkpt lat="46.2715" lon="6.74809">
        <ele>1599.77</ele>
        <time>2025-03-26T10:17:01Z</time>
      </trkpt>
      <trkpt lat="46.27146" lon="6.74834">
        <ele>1599.74</ele>
        <time>2025-03-26T10:18:07Z</time>
      </trkpt>
      <trkpt lat="46.27131" lon="6.7485">
        <ele>1603.38</ele>
        <time>2025-03-26T10:18:40Z</time>
      </trkpt>
      <trkpt lat="46.27116" lon="6.74866">
        <ele>1603.47</ele>
        <time>2025-03-26T10:19:23Z</time>
      </trkpt>
      <trkpt lat="46.27099" lon="6.74878">
        <ele>1604.47</ele>
        <time>2025-03-26T10:20:10Z</time>
      </trkpt>
      <trkpt lat="46.27082" lon="6.74883">
        <ele>1604.79</ele>
        <time>2025-03-26T10:20:59Z</time>
      </trkpt>
      <trkpt lat="46.27066" lon="6.74899">
        <ele>1605.17</ele>
        <time>2025-03-26T10:21:40Z</time>
      </trkpt>
      <trkpt lat="46.27052" lon="6.74915">
        <ele>1607.45</ele>
        <time>2025-03-26T10:22:24Z</time>
      </trkpt>
      <trkpt lat="46.27039" lon="6.74934">
        <ele>1608.5</ele>
        <time>2025-03-26T10:23:02Z</time>
      </trkpt>
      <trkpt lat="46.27031" lon="6.74957">
        <ele>1611.38</ele>
        <time>2025-03-26T10:26:09Z</time>
      </trkpt>
      <trkpt lat="46.27027" lon="6.74984">
        <ele>1611.09</ele>
        <time>2025-03-26T10:26:59Z</time>
      </trkpt>
      <trkpt lat="46.27029" lon="6.75011">
        <ele>1611.49</ele>
        <time>2025-03-26T10:27:29Z</time>
      </trkpt>
      <trkpt lat="46.27026" lon="6.75038">
        <ele>1609.49</ele>
        <time>2025-03-26T10:28:07Z</time>
      </trkpt>
      <trkpt lat="46.27019" lon="6.75062">
        <ele>1616.19</ele>
        <time>2025-03-26T10:28:50Z</time>
      </trkpt>
      <trkpt lat="46.27015" lon="6.75088">
        <ele>1616.36</ele>
        <time>2025-03-26T10:29:25Z</time>
      </trkpt>
      <trkpt lat="46.27014" lon="6.75115">
        <ele>1617.69</ele>
        <time>2025-03-26T10:34:26Z</time>
      </trkpt>
      <trkpt lat="46.27009" lon="6.7514">
        <ele>1623.79</ele>
        <time>2025-03-26T10:35:12Z</time>
      </trkpt>
      <trkpt lat="46.27004" lon="6.75165">
        <ele>1630.59</ele>
        <time>2025-03-26T10:36:11Z</time>
      </trkpt>
      <trkpt lat="46.27003" lon="6.75191">
        <ele>1643.49</ele>
        <time>2025-03-26T10:37:10Z</time>
      </trkpt>
      <trkpt lat="46.26998" lon="6.75217">
        <ele>1651.79</ele>
        <time>2025-03-26T10:37:59Z</time>
      </trkpt>
      <trkpt lat="46.26993" lon="6.75243">
        <ele>1652.2</ele>
        <time>2025-03-26T10:39:12Z</time>
      </trkpt>
      <trkpt lat="46.26989" lon="6.75269">
        <ele>1661.46</ele>
        <time>2025-03-26T10:40:22Z</time>
      </trkpt>
      <trkpt lat="46.26979" lon="6.75292">
        <ele>1664.79</ele>
        <time>2025-03-26T10:41:12Z</time>
      </trkpt>
      <trkpt lat="46.26971" lon="6.75315">
        <ele>1668.69</ele>
        <time>2025-03-26T10:41:43Z</time>
      </trkpt>
      <trkpt lat="46.26962" lon="6.75339">
        <ele>1669.71</ele>
        <time>2025-03-26T10:42:13Z</time>
      </trkpt>
      <trkpt lat="46.26952" lon="6.75362">
        <ele>1671.79</ele>
        <time>2025-03-26T10:42:50Z</time>
      </trkpt>
      <trkpt lat="46.26945" lon="6.75386">
        <ele>1670.09</ele>
        <time>2025-03-26T10:43:20Z</time>
      </trkpt>
      <trkpt lat="46.26935" lon="6.75409">
        <ele>1674.19</ele>
        <time>2025-03-26T10:44:13Z</time>
      </trkpt>
      <trkpt lat="46.26928" lon="6.75433">
        <ele>1673.76</ele>
        <time>2025-03-26T10:44:40Z</time>
      </trkpt>
      <trkpt lat="46.26918" lon="6.75457">
        <ele>1679.79</ele>
        <time>2025-03-26T10:45:30Z</time>
      </trkpt>
      <trkpt lat="46.26914" lon="6.75484">
        <ele>1680.09</ele>
        <time>2025-03-26T10:46:05Z</time>
      </trkpt>
      <trkpt lat="46.26912" lon="6.7551">
        <ele>1684.76</ele>
        <time>2025-03-26T10:46:44Z</time>
      </trkpt>
      <trkpt lat="46.26918" lon="6.75536">
        <ele>1695.49</ele>
        <time>2025-03-26T10:47:38Z</time>
      </trkpt>
      <trkpt lat="46.2693" lon="6.75556">
        <ele>1698.76</ele>
        <time>2025-03-26T10:48:32Z</time>
      </trkpt>
      <trkpt lat="46.26927" lon="6.75582">
        <ele>1707.69</ele>
        <time>2025-03-26T10:50:07Z</time>
      </trkpt>
      <trkpt lat="46.26924" lon="6.75607">
        <ele>1707.8</ele>
        <time>2025-03-26T10:51:06Z</time>
      </trkpt>
      <trkpt lat="46.26931" lon="6.75632">
        <ele>1710</ele>
        <time>2025-03-26T10:52:20Z</time>
      </trkpt>
      <trkpt lat="46.26928" lon="6.75657">
        <ele>1722.76</ele>
        <time>2025-03-26T10:54:40Z</time>
      </trkpt>
      <trkpt lat="46.26916" lon="6.75678">
        <ele>1718.7</ele>
        <time>2025-03-26T10:57:41Z</time>
      </trkpt>
      <trkpt lat="46.26911" lon="6.75703">
        <ele>1732.79</ele>
        <time>2025-03-26T10:59:04Z</time>
      </trkpt>
      <trkpt lat="46.26914" lon="6.75729">
        <ele>1740.76</ele>
        <time>2025-03-26T11:00:31Z</time>
      </trkpt>
      <trkpt lat="46.26921" lon="6.75753">
        <ele>1746.88</ele>
        <time>2025-03-26T11:02:24Z</time>
      </trkpt>
      <trkpt lat="46.26937" lon="6.75767">
        <ele>1751.14</ele>
        <time>2025-03-26T11:03:32Z</time>
      </trkpt>
      <trkpt lat="46.26955" lon="6.7577">
        <ele>1747.76</ele>
        <time>2025-03-26T11:04:41Z</time>
      </trkpt>
      <trkpt lat="46.26973" lon="6.75776">
        <ele>1753.49</ele>
        <time>2025-03-26T11:05:40Z</time>
      </trkpt>
      <trkpt lat="46.26986" lon="6.75793">
        <ele>1761.76</ele>
        <time>2025-03-26T11:06:57Z</time>
      </trkpt>
      <trkpt lat="46.26992" lon="6.75818">
        <ele>1772.71</ele>
        <time>2025-03-26T11:08:42Z</time>
      </trkpt>
      <trkpt lat="46.27005" lon="6.75838">
        <ele>1776.7</ele>
        <time>2025-03-26T11:09:20Z</time>
      </trkpt>
      <trkpt lat="46.27016" lon="6.75859">
        <ele>1784.78</ele>
        <time>2025-03-26T11:09:47Z</time>
      </trkpt>
      <trkpt lat="46.27034" lon="6.75853">
        <ele>1788.79</ele>
        <time>2025-03-26T11:11:19Z</time>
      </trkpt>
      <trkpt lat="46.2702" lon="6.75869">
        <ele>1784.79</ele>
        <time>2025-03-26T11:15:37Z</time>
      </trkpt>
      <trkpt lat="46.27025" lon="6.75894">
        <ele>1783.78</ele>
        <time>2025-03-26T11:16:20Z</time>
      </trkpt>
      <trkpt lat="46.27028" lon="6.7592">
        <ele>1775.77</ele>
        <time>2025-03-26T11:17:25Z</time>
      </trkpt>
      <trkpt lat="46.27034" lon="6.75946">
        <ele>1774.11</ele>
        <time>2025-03-26T11:18:42Z</time>
      </trkpt>
      <trkpt lat="46.27052" lon="6.75937">
        <ele>1770.39</ele>
        <time>2025-03-26T11:19:53Z</time>
      </trkpt>
      <trkpt lat="46.2707" lon="6.75934">
        <ele>1760.79</ele>
        <time>2025-03-26T11:20:51Z</time>
      </trkpt>
      <trkpt lat="46.27082" lon="6.75953">
        <ele>1751.79</ele>
        <time>2025-03-26T11:22:11Z</time>
      </trkpt>
      <trkpt lat="46.27094" lon="6.75973">
        <ele>1748.76</ele>
        <time>2025-03-26T11:22:57Z</time>
      </trkpt>
      <trkpt lat="46.271" lon="6.75997">
        <ele>1740.12</ele>
        <time>2025-03-26T11:24:43Z</time>
      </trkpt>
      <trkpt lat="46.27097" lon="6.75971">
        <ele>1748.49</ele>
        <time>2025-03-26T11:27:03Z</time>
      </trkpt>
      <trkpt lat="46.27085" lon="6.75952">
        <ele>1749.86</ele>
        <time>2025-03-26T11:27:55Z</time>
      </trkpt>
      <trkpt lat="46.27074" lon="6.75931">
        <ele>1753.85</ele>
        <time>2025-03-26T11:29:01Z</time>
      </trkpt>
      <trkpt lat="46.27056" lon="6.75925">
        <ele>1760.79</ele>
        <time>2025-03-26T11:30:19Z</time>
      </trkpt>
      <trkpt lat="46.2704" lon="6.75938">
        <ele>1767.61</ele>
        <time>2025-03-26T11:32:12Z</time>
      </trkpt>
      <trkpt lat="46.27034" lon="6.75913">
        <ele>1783.87</ele>
        <time>2025-03-26T11:34:01Z</time>
      </trkpt>
      <trkpt lat="46.27028" lon="6.75888">
        <ele>1777.77</ele>
        <time>2025-03-26T11:34:59Z</time>
      </trkpt>
      <trkpt lat="46.27018" lon="6.75865">
        <ele>1777.79</ele>
        <time>2025-03-26T11:35:45Z</time>
      </trkpt>
      <trkpt lat="46.27029" lon="6.75844">
        <ele>1780.01</ele>
        <time>2025-03-26T11:36:36Z</time>
      </trkpt>
      <trkpt lat="46.27017" lon="6.75864">
        <ele>1781.7</ele>
        <time>2025-03-26T12:05:58Z</time>
      </trkpt>
      <trkpt lat="46.27025" lon="6.75841">
        <ele>1780.88</ele>
        <time>2025-03-26T12:09:05Z</time>
      </trkpt>
      <trkpt lat="46.27008" lon="6.75831">
        <ele>1776.1</ele>
        <time>2025-03-26T12:21:56Z</time>
      </trkpt>
      <trkpt lat="46.26992" lon="6.75819">
        <ele>1769.89</ele>
        <time>2025-03-26T12:22:23Z</time>
      </trkpt>
      <trkpt lat="46.26982" lon="6.75797">
        <ele>1759.77</ele>
        <time>2025-03-26T12:22:55Z</time>
      </trkpt>
      <trkpt lat="46.26973" lon="6.75774">
        <ele>1751.12</ele>
        <time>2025-03-26T12:23:45Z</time>
      </trkpt>
      <trkpt lat="46.26956" lon="6.75765">
        <ele>1748.79</ele>
        <time>2025-03-26T12:24:28Z</time>
      </trkpt>
      <trkpt lat="46.26937" lon="6.75766">
        <ele>1744.8</ele>
        <time>2025-03-26T12:25:28Z</time>
      </trkpt>
      <trkpt lat="46.26924" lon="6.75748">
        <ele>1743.58</ele>
        <time>2025-03-26T12:26:59Z</time>
      </trkpt>
      <trkpt lat="46.26913" lon="6.75726">
        <ele>1732.91</ele>
        <time>2025-03-26T12:28:36Z</time>
      </trkpt>
      <trkpt lat="46.26911" lon="6.75699">
        <ele>1730.09</ele>
        <time>2025-03-26T12:29:30Z</time>
      </trkpt>
      <trkpt lat="46.26911" lon="6.75672">
        <ele>1723.49</ele>
        <time>2025-03-26T12:30:36Z</time>
      </trkpt>
      <trkpt lat="46.26915" lon="6.75646">
        <ele>1720</ele>
        <time>2025-03-26T12:31:16Z</time>
      </trkpt>
      <trkpt lat="46.26927" lon="6.75625">
        <ele>1707.49</ele>
        <time>2025-03-26T12:32:35Z</time>
      </trkpt>
      <trkpt lat="46.26925" lon="6.75599">
        <ele>1698.1</ele>
        <time>2025-03-26T12:33:09Z</time>
      </trkpt>
      <trkpt lat="46.2692" lon="6.75573">
        <ele>1693.58</ele>
        <time>2025-03-26T12:33:50Z</time>
      </trkpt>
      <trkpt lat="46.26926" lon="6.75548">
        <ele>1690.09</ele>
        <time>2025-03-26T12:34:37Z</time>
      </trkpt>
      <trkpt lat="46.2692" lon="6.75523">
        <ele>1682.79</ele>
        <time>2025-03-26T12:35:10Z</time>
      </trkpt>
      <trkpt lat="46.26917" lon="6.75497">
        <ele>1681.79</ele>
        <time>2025-03-26T12:35:54Z</time>
      </trkpt>
      <trkpt lat="46.2692" lon="6.75471">
        <ele>1678.09</ele>
        <time>2025-03-26T12:36:29Z</time>
      </trkpt>
      <trkpt lat="46.26926" lon="6.75446">
        <ele>1679.79</ele>
        <time>2025-03-26T12:36:55Z</time>
      </trkpt>
      <trkpt lat="46.26935" lon="6.75422">
        <ele>1676.71</ele>
        <time>2025-03-26T12:37:18Z</time>
      </trkpt>
      <trkpt lat="46.26945" lon="6.75399">
        <ele>1675.87</ele>
        <time>2025-03-26T12:37:50Z</time>
      </trkpt>
      <trkpt lat="46.26956" lon="6.75377">
        <ele>1674.79</ele>
        <time>2025-03-26T12:38:17Z</time>
      </trkpt>
      <trkpt lat="46.26964" lon="6.75354">
        <ele>1670.79</ele>
        <time>2025-03-26T12:38:40Z</time>
      </trkpt>
      <trkpt lat="46.26973" lon="6.75331">
        <ele>1668.8</ele>
        <time>2025-03-26T12:38:59Z</time>
      </trkpt>
      <trkpt lat="46.26983" lon="6.75309">
        <ele>1672.08</ele>
        <time>2025-03-26T12:39:22Z</time>
      </trkpt>
      <trkpt lat="46.26991" lon="6.75285">
        <ele>1665.1</ele>
        <time>2025-03-26T12:40:03Z</time>
      </trkpt>
      <trkpt lat="46.26995" lon="6.75259">
        <ele>1660.79</ele>
        <time>2025-03-26T12:40:39Z</time>
      </trkpt>
      <trkpt lat="46.27003" lon="6.75235">
        <ele>1651.09</ele>
        <time>2025-03-26T12:41:04Z</time>
      </trkpt>
      <trkpt lat="46.27005" lon="6.75206">
        <ele>1648.79</ele>
        <time>2025-03-26T12:41:47Z</time>
      </trkpt>
      <trkpt lat="46.27013" lon="6.75183">
        <ele>1643.1</ele>
        <time>2025-03-26T12:42:17Z</time>
      </trkpt>
      <trkpt lat="46.27019" lon="6.75158">
        <ele>1638.78</ele>
        <time>2025-03-26T12:42:57Z</time>
      </trkpt>
      <trkpt lat="46.27024" lon="6.75132">
        <ele>1632.89</ele>
        <time>2025-03-26T12:43:22Z</time>
      </trkpt>
      <trkpt lat="46.27025" lon="6.75106">
        <ele>1628.79</ele>
        <time>2025-03-26T12:43:47Z</time>
      </trkpt>
      <trkpt lat="46.27018" lon="6.75081">
        <ele>1627.79</ele>
        <time>2025-03-26T12:44:12Z</time>
      </trkpt>
      <trkpt lat="46.27022" lon="6.75054">
        <ele>1617.79</ele>
        <time>2025-03-26T12:45:56Z</time>
      </trkpt>
      <trkpt lat="46.27031" lon="6.7503">
        <ele>1617.79</ele>
        <time>2025-03-26T12:46:17Z</time>
      </trkpt>
      <trkpt lat="46.27032" lon="6.75003">
        <ele>1616.51</ele>
        <time>2025-03-26T12:46:37Z</time>
      </trkpt>
      <trkpt lat="46.27037" lon="6.74978">
        <ele>1619.47</ele>
        <time>2025-03-26T12:47:08Z</time>
      </trkpt>
      <trkpt lat="46.27035" lon="6.74952">
        <ele>1614.5</ele>
        <time>2025-03-26T12:47:44Z</time>
      </trkpt>
      <trkpt lat="46.27048" lon="6.74933">
        <ele>1610.47</ele>
        <time>2025-03-26T12:48:25Z</time>
      </trkpt>
      <trkpt lat="46.27061" lon="6.74913">
        <ele>1604.48</ele>
        <time>2025-03-26T12:48:56Z</time>
      </trkpt>
      <trkpt lat="46.27073" lon="6.74892">
        <ele>1606.38</ele>
        <time>2025-03-26T12:49:43Z</time>
      </trkpt>
      <trkpt lat="46.27091" lon="6.74889">
        <ele>1604.49</ele>
        <time>2025-03-26T12:50:18Z</time>
      </trkpt>
      <trkpt lat="46.27107" lon="6.74877">
        <ele>1603.44</ele>
        <time>2025-03-26T12:50:47Z</time>
      </trkpt>
      <trkpt lat="46.27124" lon="6.74866">
        <ele>1603.47</ele>
        <time>2025-03-26T12:51:21Z</time>
      </trkpt>
      <trkpt lat="46.27139" lon="6.7485">
        <ele>1603.47</ele>
        <time>2025-03-26T12:51:51Z</time>
      </trkpt>
      <trkpt lat="46.27153" lon="6.74832">
        <ele>1598.77</ele>
        <time>2025-03-26T12:52:34Z</time>
      </trkpt>
      <trkpt lat="46.27164" lon="6.7481">
        <ele>1605.38</ele>
        <time>2025-03-26T12:55:10Z</time>
      </trkpt>
      <trkpt lat="46.2717" lon="6.74785">
        <ele>1605.77</ele>
        <time>2025-03-26T12:55:37Z</time>
      </trkpt>
      <trkpt lat="46.2718" lon="6.74762">
        <ele>1606.47</ele>
        <time>2025-03-26T12:56:00Z</time>
      </trkpt>
      <trkpt lat="46.27193" lon="6.74744">
        <ele>1604.45</ele>
        <time>2025-03-26T12:56:37Z</time>
      </trkpt>
      <trkpt lat="46.27211" lon="6.74736">
        <ele>1599.78</ele>
        <time>2025-03-26T12:57:13Z</time>
      </trkpt>
      <trkpt lat="46.27227" lon="6.74725">
        <ele>1599.75</ele>
        <time>2025-03-26T12:57:34Z</time>
      </trkpt>
      <trkpt lat="46.27242" lon="6.7471">
        <ele>1597.56</ele>
        <time>2025-03-26T12:58:02Z</time>
      </trkpt>
      <trkpt lat="46.27255" lon="6.74687">
        <ele>1596.17</ele>
        <time>2025-03-26T12:58:30Z</time>
      </trkpt>
      <trkpt lat="46.27264" lon="6.74664">
        <ele>1590.77</ele>
        <time>2025-03-26T12:59:01Z</time>
      </trkpt>
      <trkpt lat="46.2727" lon="6.74639">
        <ele>1587.5</ele>
        <time>2025-03-26T12:59:27Z</time>
      </trkpt>
      <trkpt lat="46.27273" lon="6.74613">
        <ele>1585.47</ele>
        <time>2025-03-26T12:59:53Z</time>
      </trkpt>
      <trkpt lat="46.27278" lon="6.74588">
        <ele>1580.49</ele>
        <time>2025-03-26T13:00:18Z</time>
      </trkpt>
      <trkpt lat="46.2728" lon="6.74561">
        <ele>1584.47</ele>
        <time>2025-03-26T13:00:43Z</time>
      </trkpt>
      <trkpt lat="46.27284" lon="6.74535">
        <ele>1578.78</ele>
        <time>2025-03-26T13:01:14Z</time>
      </trkpt>
      <trkpt lat="46.27283" lon="6.74509">
        <ele>1574.18</ele>
        <time>2025-03-26T13:01:39Z</time>
      </trkpt>
      <trkpt lat="46.27279" lon="6.74483">
        <ele>1570.56</ele>
        <time>2025-03-26T13:02:05Z</time>
      </trkpt>
      <trkpt lat="46.27276" lon="6.74455">
        <ele>1556.18</ele>
        <time>2025-03-26T13:02:43Z</time>
      </trkpt>
      <trkpt lat="46.27278" lon="6.74428">
        <ele>1544.57</ele>
        <time>2025-03-26T13:03:16Z</time>
      </trkpt>
      <trkpt lat="46.27287" lon="6.74405">
        <ele>1539.47</ele>
        <time>2025-03-26T13:03:57Z</time>
      </trkpt>
      <trkpt lat="46.27295" lon="6.74381">
        <ele>1530.77</ele>
        <time>2025-03-26T13:04:34Z</time>
      </trkpt>
      <trkpt lat="46.27304" lon="6.74357">
        <ele>1528.47</ele>
        <time>2025-03-26T13:04:54Z</time>
      </trkpt>
      <trkpt lat="46.27311" lon="6.74332">
        <ele>1522.56</ele>
        <time>2025-03-26T13:05:36Z</time>
      </trkpt>
      <trkpt lat="46.27311" lon="6.74305">
        <ele>1522.45</ele>
        <time>2025-03-26T13:06:07Z</time>
      </trkpt>
      <trkpt lat="46.27312" lon="6.74278">
        <ele>1521.51</ele>
        <time>2025-03-26T13:09:12Z</time>
      </trkpt>
      <trkpt lat="46.2732" lon="6.74251">
        <ele>1524.77</ele>
        <time>2025-03-26T13:10:00Z</time>
      </trkpt>
      <trkpt lat="46.27322" lon="6.74223">
        <ele>1519.77</ele>
        <time>2025-03-26T13:10:23Z</time>
      </trkpt>
      <trkpt lat="46.2732" lon="6.74197">
        <ele>1514.48</ele>
        <time>2025-03-26T13:10:44Z</time>
      </trkpt>
      <trkpt lat="46.27323" lon="6.74171">
        <ele>1509.48</ele>
        <time>2025-03-26T13:11:10Z</time>
      </trkpt>
      <trkpt lat="46.27321" lon="6.74145">
        <ele>1505.5</ele>
        <time>2025-03-26T13:11:41Z</time>
      </trkpt>
      <trkpt lat="46.27321" lon="6.74119">
        <ele>1494.68</ele>
        <time>2025-03-26T13:13:50Z</time>
      </trkpt>
      <trkpt lat="46.27322" lon="6.74093">
        <ele>1496.38</ele>
        <time>2025-03-26T13:14:26Z</time>
      </trkpt>
      <trkpt lat="46.27336" lon="6.74076">
        <ele>1493.04</ele>
        <time>2025-03-26T13:15:31Z</time>
      </trkpt>
      <trkpt lat="46.27348" lon="6.74056">
        <ele>1484.78</ele>
        <time>2025-03-26T13:15:57Z</time>
      </trkpt>
      <trkpt lat="46.27348" lon="6.7403">
        <ele>1475.96</ele>
        <time>2025-03-26T13:16:30Z</time>
      </trkpt>
      <trkpt lat="46.27346" lon="6.74003">
        <ele>1472.48</ele>
        <time>2025-03-26T13:17:00Z</time>
      </trkpt>
      <trkpt lat="46.2733" lon="6.73991">
        <ele>1470.17</ele>
        <time>2025-03-26T13:17:45Z</time>
      </trkpt>
      <trkpt lat="46.27348" lon="6.73982">
        <ele>1464.08</ele>
        <time>2025-03-26T13:19:41Z</time>
      </trkpt>
      <trkpt lat="46.27366" lon="6.73984">
        <ele>1456.48</ele>
        <time>2025-03-26T13:20:13Z</time>
      </trkpt>
      <trkpt lat="46.27374" lon="6.7396">
        <ele>1453.38</ele>
        <time>2025-03-26T13:20:40Z</time>
      </trkpt>
      <trkpt lat="46.27363" lon="6.73938">
        <ele>1450.75</ele>
        <time>2025-03-26T13:21:09Z</time>
      </trkpt>
      <trkpt lat="46.27346" lon="6.73926">
        <ele>1449.47</ele>
        <time>2025-03-26T13:21:30Z</time>
      </trkpt>
      <trkpt lat="46.27358" lon="6.73907">
        <ele>1442.54</ele>
        <time>2025-03-26T13:22:38Z</time>
      </trkpt>
      <trkpt lat="46.27375" lon="6.73894">
        <ele>1434.77</ele>
        <time>2025-03-26T13:23:30Z</time>
      </trkpt>
      <trkpt lat="46.27395" lon="6.73896">
        <ele>1429.77</ele>
        <time>2025-03-26T13:24:04Z</time>
      </trkpt>
      <trkpt lat="46.27412" lon="6.73899">
        <ele>1421.57</ele>
        <time>2025-03-26T13:24:37Z</time>
      </trkpt>
      <trkpt lat="46.27429" lon="6.73911">
        <ele>1418.26</ele>
        <time>2025-03-26T13:25:02Z</time>
      </trkpt>
      <trkpt lat="46.27442" lon="6.73932">
        <ele>1410.47</ele>
        <time>2025-03-26T13:25:41Z</time>
      </trkpt>
      <trkpt lat="46.27458" lon="6.73947">
        <ele>1405.77</ele>
        <time>2025-03-26T13:26:21Z</time>
      </trkpt>
      <trkpt lat="46.27464" lon="6.73922">
        <ele>1405.45</ele>
        <time>2025-03-26T13:26:57Z</time>
      </trkpt>
      <trkpt lat="46.27464" lon="6.73895">
        <ele>1403.39</ele>
        <time>2025-03-26T13:27:24Z</time>
      </trkpt>
      <trkpt lat="46.27465" lon="6.73869">
        <ele>1400.17</ele>
        <time>2025-03-26T13:34:07Z</time>
      </trkpt>
      <trkpt lat="46.2746" lon="6.73843">
        <ele>1400.37</ele>
        <time>2025-03-26T13:36:12Z</time>
      </trkpt>
      <trkpt lat="46.27469" lon="6.7382">
        <ele>1401.16</ele>
        <time>2025-03-26T13:36:46Z</time>
      </trkpt>
      <trkpt lat="46.27453" lon="6.73834">
        <ele>1398.56</ele>
        <time>2025-03-26T13:37:34Z</time>
      </trkpt>
      <trkpt lat="46.27435" lon="6.73832">
        <ele>1394.47</ele>
        <time>2025-03-26T13:38:26Z</time>
      </trkpt>
      <trkpt lat="46.27419" lon="6.73819">
        <ele>1392.77</ele>
        <time>2025-03-26T13:38:54Z</time>
      </trkpt>
      <trkpt lat="46.27413" lon="6.73794">
        <ele>1385.81</ele>
        <time>2025-03-26T13:39:35Z</time>
      </trkpt>
      <trkpt lat="46.27403" lon="6.73771">
        <ele>1378.57</ele>
        <time>2025-03-26T13:40:04Z</time>
      </trkpt>
      <trkpt lat="46.27396" lon="6.73746">
        <ele>1374.38</ele>
        <time>2025-03-26T13:40:32Z</time>
      </trkpt>
      <trkpt lat="46.27392" lon="6.73721">
        <ele>1369.57</ele>
        <time>2025-03-26T13:40:55Z</time>
      </trkpt>
      <trkpt lat="46.27384" lon="6.73697">
        <ele>1366.48</ele>
        <time>2025-03-26T13:41:21Z</time>
      </trkpt>
      <trkpt lat="46.27375" lon="6.73673">
        <ele>1361.51</ele>
        <time>2025-03-26T13:41:43Z</time>
      </trkpt>
      <trkpt lat="46.27368" lon="6.73648">
        <ele>1352.39</ele>
        <time>2025-03-26T13:43:35Z</time>
      </trkpt>
      <trkpt lat="46.27362" lon="6.73622">
        <ele>1352.47</ele>
        <time>2025-03-26T13:43:49Z</time>
      </trkpt>
      <trkpt lat="46.27356" lon="6.73597">
        <ele>1352.46</ele>
        <time>2025-03-26T13:44:00Z</time>
      </trkpt>
      <trkpt lat="46.27347" lon="6.73573">
        <ele>1348.48</ele>
        <time>2025-03-26T13:44:14Z</time>
      </trkpt>
      <trkpt lat="46.27337" lon="6.73551">
        <ele>1345.68</ele>
        <time>2025-03-26T13:44:29Z</time>
      </trkpt>
      <trkpt lat="46.27326" lon="6.73528">
        <ele>1343.47</ele>
        <time>2025-03-26T13:44:46Z</time>
      </trkpt>
      <trkpt lat="46.27314" lon="6.73508">
        <ele>1336.59</ele>
        <time>2025-03-26T13:45:12Z</time>
      </trkpt>
      <trkpt lat="46.27298" lon="6.73494">
        <ele>1334.77</ele>
        <time>2025-03-26T13:45:32Z</time>
      </trkpt>
      <trkpt lat="46.27288" lon="6.73472">
        <ele>1332.45</ele>
        <time>2025-03-26T13:45:52Z</time>
      </trkpt>
      <trkpt lat="46.27289" lon="6.73445">
        <ele>1329.45</ele>
        <time>2025-03-26T13:46:14Z</time>
      </trkpt>
      <trkpt lat="46.27277" lon="6.73424">
        <ele>1330.56</ele>
        <time>2025-03-26T13:46:32Z</time>
      </trkpt>
      <trkpt lat="46.2726" lon="6.73434">
        <ele>1325.71</ele>
        <time>2025-03-26T13:46:51Z</time>
      </trkpt>
      <trkpt lat="46.27242" lon="6.73435">
        <ele>1322.56</ele>
        <time>2025-03-26T13:47:25Z</time>
      </trkpt>
      <trkpt lat="46.27223" lon="6.73436">
        <ele>1317.56</ele>
        <time>2025-03-26T13:47:53Z</time>
      </trkpt>
      <trkpt lat="46.27206" lon="6.73443">
        <ele>1312.8</ele>
        <time>2025-03-26T13:48:18Z</time>
      </trkpt>
      <trkpt lat="46.27188" lon="6.73451">
        <ele>1308.47</ele>
        <time>2025-03-26T13:48:36Z</time>
      </trkpt>
      <trkpt lat="46.27172" lon="6.73463">
        <ele>1299.77</ele>
        <time>2025-03-26T13:49:03Z</time>
      </trkpt>
      <trkpt lat="46.27155" lon="6.73475">
        <ele>1293.77</ele>
        <time>2025-03-26T13:49:23Z</time>
      </trkpt>
      <trkpt lat="46.27137" lon="6.73483">
        <ele>1288.49</ele>
        <time>2025-03-26T13:49:48Z</time>
      </trkpt>
      <trkpt lat="46.27123" lon="6.73466">
        <ele>1280.47</ele>
        <time>2025-03-26T13:50:13Z</time>
      </trkpt>
      <trkpt lat="46.27106" lon="6.73477">
        <ele>1277.77</ele>
        <time>2025-03-26T13:50:42Z</time>
      </trkpt>
      <trkpt lat="46.27089" lon="6.73488">
        <ele>1273.5</ele>
        <time>2025-03-26T13:51:02Z</time>
      </trkpt>
      <trkpt lat="46.27075" lon="6.73505">
        <ele>1271.47</ele>
        <time>2025-03-26T13:51:21Z</time>
      </trkpt>
      <trkpt lat="46.27062" lon="6.73525">
        <ele>1266.48</ele>
        <time>2025-03-26T13:51:44Z</time>
      </trkpt>
      <trkpt lat="46.27045" lon="6.73534">
        <ele>1258.56</ele>
        <time>2025-03-26T13:52:16Z</time>
      </trkpt>
      <trkpt lat="46.27028" lon="6.73525">
        <ele>1251.51</ele>
        <time>2025-03-26T13:52:46Z</time>
      </trkpt>
      <trkpt lat="46.27009" lon="6.73527">
        <ele>1244.5</ele>
        <time>2025-03-26T13:53:16Z</time>
      </trkpt>
      <trkpt lat="46.26991" lon="6.73531">
        <ele>1244.48</ele>
        <time>2025-03-26T13:54:32Z</time>
      </trkpt>
      <trkpt lat="46.26979" lon="6.73552">
        <ele>1238.56</ele>
        <time>2025-03-26T13:55:05Z</time>
      </trkpt>
      <trkpt lat="46.26961" lon="6.73553">
        <ele>1235.78</ele>
        <time>2025-03-26T13:55:31Z</time>
      </trkpt>
      <trkpt lat="46.26959" lon="6.73527">
        <ele>1235.56</ele>
        <time>2025-03-26T13:56:12Z</time>
      </trkpt>
      <trkpt lat="46.26963" lon="6.735">
        <ele>1233.8</ele>
        <time>2025-03-26T13:56:30Z</time>
      </trkpt>
      <trkpt lat="46.26977" lon="6.73484">
        <ele>1231.47</ele>
        <time>2025-03-26T13:56:48Z</time>
      </trkpt>
      <trkpt lat="46.2696" lon="6.73475">
        <ele>1230.47</ele>
        <time>2025-03-26T13:57:12Z</time>
      </trkpt>
      <trkpt lat="46.26942" lon="6.73481">
        <ele>1230.54</ele>
        <time>2025-03-26T13:57:30Z</time>
      </trkpt>
      <trkpt lat="46.2693" lon="6.73501">
        <ele>1228.48</ele>
        <time>2025-03-26T13:57:47Z</time>
      </trkpt>
      <trkpt lat="46.26931" lon="6.73528">
        <ele>1225.5</ele>
        <time>2025-03-26T13:58:03Z</time>
      </trkpt>
      <trkpt lat="46.26926" lon="6.73554">
        <ele>1225.47</ele>
        <time>2025-03-26T13:58:22Z</time>
      </trkpt>
    </trkseg>
  </trk>
</gpx>